createdAt,value
2018-08-22T00:00:54.730Z,69.20
2018-08-22T00:03:24.459Z,68.60
2018-08-22T00:05:54.309Z,68.30
2018-08-22T00:08:29.189Z,68.50
2018-08-22T00:10:58.828Z,68.50
2018-08-22T00:13:28.536Z,68.80
2018-08-22T00:15:58.360Z,69.20
2018-08-22T00:18:28.203Z,69.50
2018-08-22T00:20:58.020Z,69.30
2018-08-22T00:23:27.714Z,69.20
2018-08-22T00:25:57.493Z,69.30
2018-08-22T00:28:27.088Z,69.60
2018-08-22T00:30:56.730Z,69.70
2018-08-22T00:33:26.273Z,69.80
2018-08-22T00:35:55.885Z,70.70
2018-08-22T00:38:25.598Z,70.70
2018-08-22T00:40:55.670Z,70.90
2018-08-22T00:43:25.330Z,70.90
2018-08-22T00:45:54.941Z,71.00
2018-08-22T00:48:24.574Z,71.10
2018-08-22T00:50:54.348Z,71.50
2018-08-22T00:53:23.977Z,70.70
2018-08-22T00:55:53.605Z,71.40
2018-08-22T00:58:23.281Z,71.60
2018-08-22T01:00:53.085Z,71.60
2018-08-22T01:03:22.665Z,71.50
2018-08-22T01:05:52.302Z,71.70
2018-08-22T01:08:22.085Z,72.10
2018-08-22T01:10:51.813Z,72.30
2018-08-22T01:13:21.580Z,72.40
2018-08-22T01:15:51.177Z,72.20
2018-08-22T01:18:20.879Z,72.20
2018-08-22T01:20:50.399Z,72.20
2018-08-22T01:23:20.061Z,72.20
2018-08-22T01:25:49.828Z,72.40
2018-08-22T01:28:19.409Z,72.30
2018-08-22T01:30:49.083Z,72.50
2018-08-22T01:33:18.759Z,72.40
2018-08-22T01:35:48.308Z,72.40
2018-08-22T01:38:17.983Z,72.40
2018-08-22T01:40:47.598Z,72.50
2018-08-22T01:43:17.482Z,72.40
2018-08-22T01:45:47.110Z,72.60
2018-08-22T01:49:19.428Z,72.70
2018-08-22T01:51:49.203Z,72.60
2018-08-22T01:54:18.821Z,72.10
2018-08-22T01:56:48.456Z,72.60
2018-08-22T01:59:18.255Z,72.60
2018-08-22T02:01:47.871Z,72.70
2018-08-22T02:04:17.569Z,72.80
2018-08-22T02:06:47.245Z,72.90
2018-08-22T02:09:16.901Z,72.80
2018-08-22T02:11:46.938Z,73.00
2018-08-22T02:14:16.676Z,73.00
2018-08-22T02:16:46.428Z,73.00
2018-08-22T02:19:16.035Z,73.00
2018-08-22T02:21:45.788Z,73.70
2018-08-22T02:24:15.364Z,73.30
2018-08-22T02:26:45.085Z,73.40
2018-08-22T02:29:14.831Z,73.70
2018-08-22T02:31:44.624Z,73.70
2018-08-22T02:34:14.259Z,73.70
2018-08-22T02:36:44.006Z,73.90
2018-08-22T02:39:13.711Z,74.10
2018-08-22T02:41:43.326Z,74.10
2018-08-22T02:44:13.001Z,74.20
2018-08-22T02:46:42.764Z,74.40
2018-08-22T02:49:15.318Z,74.60
2018-08-22T02:51:44.966Z,74.60
2018-08-22T02:54:14.762Z,74.50
2018-08-22T02:56:44.418Z,74.30
2018-08-22T02:59:14.286Z,74.50
2018-08-22T03:01:43.907Z,74.60
2018-08-22T03:04:13.573Z,74.50
2018-08-22T03:06:43.368Z,74.50
2018-08-22T03:09:13.026Z,74.60
2018-08-22T03:11:42.774Z,74.40
2018-08-22T03:14:12.417Z,74.40
2018-08-22T03:16:42.053Z,74.60
2018-08-22T03:19:11.834Z,75.00
2018-08-22T03:21:41.555Z,75.20
2018-08-22T03:24:11.189Z,75.10
2018-08-22T03:26:41.039Z,75.00
2018-08-22T03:29:10.655Z,74.80
2018-08-22T03:31:40.305Z,74.70
2018-08-22T03:34:09.986Z,74.70
2018-08-22T03:36:39.697Z,75.00
2018-08-22T03:39:10.061Z,75.00
2018-08-22T03:41:39.851Z,75.30
2018-08-22T03:44:09.547Z,75.20
2018-08-22T03:46:39.293Z,75.90
2018-08-22T03:49:09.201Z,75.20
2018-08-22T03:51:38.859Z,75.00
2018-08-22T03:54:08.616Z,75.00
2018-08-22T03:56:38.248Z,75.00
2018-08-22T03:59:07.907Z,76.00
2018-08-22T04:01:37.715Z,75.10
2018-08-22T04:04:07.439Z,74.90
2018-08-22T04:06:37.032Z,74.80
2018-08-22T04:09:08.143Z,74.60
2018-08-22T04:11:37.886Z,74.40
2018-08-22T04:14:07.734Z,74.40
2018-08-22T04:16:37.450Z,74.30
2018-08-22T04:19:07.076Z,74.40
2018-08-22T04:21:36.762Z,74.60
2018-08-22T04:24:06.374Z,74.60
2018-08-22T04:26:36.104Z,74.50
2018-08-22T04:29:06.076Z,74.50
2018-08-22T04:31:35.786Z,74.50
2018-08-22T04:34:05.389Z,74.50
2018-08-22T04:36:35.038Z,74.40
2018-08-22T04:39:06.102Z,74.50
2018-08-22T04:41:35.788Z,74.50
2018-08-22T04:44:05.546Z,74.50
2018-08-22T04:46:35.284Z,74.50
2018-08-22T04:49:04.996Z,74.50
2018-08-22T04:51:34.679Z,74.50
2018-08-22T04:54:04.288Z,74.40
2018-08-22T04:56:34.449Z,74.50
2018-08-22T04:59:04.224Z,74.50
2018-08-22T05:01:34.658Z,74.60
2018-08-22T05:04:04.323Z,74.50
2018-08-22T05:06:33.998Z,74.30
2018-08-22T05:09:04.631Z,74.40
2018-08-22T05:11:34.208Z,74.40
2018-08-22T05:14:04.153Z,74.30
2018-08-22T05:16:33.971Z,74.50
2018-08-22T05:19:03.735Z,74.60
2018-08-22T05:21:33.478Z,74.60
2018-08-22T05:24:03.268Z,74.50
2018-08-22T05:26:33.058Z,74.60
2018-08-22T05:29:02.735Z,74.70
2018-08-22T05:31:32.466Z,74.90
2018-08-22T05:34:02.308Z,74.90
2018-08-22T05:36:32.027Z,75.00
2018-08-22T05:39:01.755Z,75.10
2018-08-22T05:41:31.577Z,75.20
2018-08-22T05:44:01.184Z,75.10
2018-08-22T05:46:31.020Z,75.10
2018-08-22T05:49:00.614Z,75.40
2018-08-22T05:51:30.304Z,75.20
2018-08-22T05:54:00.208Z,75.30
2018-08-22T05:56:29.949Z,75.20
2018-08-22T05:58:59.505Z,75.40
2018-08-22T06:01:29.118Z,75.20
2018-08-22T06:03:58.923Z,75.30
2018-08-22T06:06:28.553Z,75.20
2018-08-22T06:08:58.296Z,75.20
2018-08-22T06:11:28.166Z,75.20
2018-08-22T06:13:57.938Z,75.20
2018-08-22T06:16:27.678Z,75.10
2018-08-22T06:18:57.378Z,75.00
2018-08-22T06:21:27.054Z,75.00
2018-08-22T06:23:56.838Z,74.90
2018-08-22T06:26:26.660Z,74.70
2018-08-22T06:28:56.456Z,74.40
2018-08-22T06:31:26.079Z,74.30
2018-08-22T06:33:55.792Z,74.10
2018-08-22T06:36:25.623Z,73.80
2018-08-22T06:38:55.188Z,73.50
2018-08-22T06:41:24.811Z,73.30
2018-08-22T06:43:54.481Z,72.70
2018-08-22T06:46:24.192Z,72.30
2018-08-22T06:48:54.027Z,71.40
2018-08-22T06:51:23.713Z,71.10
2018-08-22T06:53:53.346Z,70.30
2018-08-22T06:56:22.961Z,69.80
2018-08-22T06:58:52.878Z,68.90
2018-08-22T07:01:22.619Z,68.40
2018-08-22T07:03:52.388Z,67.80
2018-08-22T07:06:22.029Z,66.70
2018-08-22T07:08:51.743Z,67.10
2018-08-22T07:11:21.389Z,66.30
2018-08-22T07:13:51.167Z,66.10
2018-08-22T07:16:20.862Z,65.40
2018-08-22T07:18:50.738Z,65.50
2018-08-22T07:21:20.425Z,65.20
2018-08-22T07:23:50.005Z,64.80
2018-08-22T07:26:19.779Z,64.20
2018-08-22T07:28:49.409Z,63.90
2018-08-22T07:31:19.026Z,62.90
2018-08-22T07:33:48.762Z,62.50
2018-08-22T07:36:18.574Z,62.50
2018-08-22T07:38:48.539Z,62.20
2018-08-22T07:41:18.230Z,61.70
2018-08-22T07:43:47.938Z,59.60
2018-08-22T07:46:17.748Z,58.00
2018-08-22T07:48:47.748Z,58.10
2018-08-22T07:51:17.632Z,57.30
2018-08-22T07:53:47.560Z,57.50
2018-08-22T07:56:17.233Z,57.00
2018-08-22T07:58:47.163Z,57.10
2018-08-22T08:01:16.961Z,57.30
2018-08-22T08:03:46.714Z,55.60
2018-08-22T08:06:16.570Z,54.40
2018-08-22T08:08:46.287Z,53.80
2018-08-22T08:11:16.150Z,53.30
2018-08-22T08:13:45.922Z,52.80
2018-08-22T08:16:15.663Z,52.90
2018-08-22T08:18:45.467Z,52.90
2018-08-22T08:21:15.203Z,51.50
2018-08-22T08:23:45.038Z,52.00
2018-08-22T08:26:14.838Z,52.20
2018-08-22T08:28:44.588Z,51.30
2018-08-22T08:31:14.177Z,50.60
2018-08-22T08:33:43.965Z,50.40
2018-08-22T08:36:13.901Z,50.70
2018-08-22T08:38:43.763Z,50.90
2018-08-22T08:41:13.821Z,50.50
2018-08-22T08:43:43.976Z,50.80
2018-08-22T08:46:13.663Z,50.80
2018-08-22T08:48:43.424Z,50.70
2018-08-22T08:51:13.266Z,50.00
2018-08-22T08:53:42.943Z,49.70
2018-08-22T08:56:12.764Z,48.90
2018-08-22T08:58:42.592Z,48.60
2018-08-22T09:01:12.314Z,48.60
2018-08-22T09:03:42.066Z,49.00
2018-08-22T09:06:11.904Z,48.60
2018-08-22T09:08:41.930Z,48.20
2018-08-22T09:11:11.835Z,48.10
2018-08-22T09:13:46.628Z,48.10
2018-08-22T09:16:16.890Z,47.70
2018-08-22T09:18:46.546Z,45.60
2018-08-22T09:21:16.254Z,46.50
2018-08-22T09:23:45.926Z,46.10
2018-08-22T09:26:15.682Z,46.10
2018-08-22T09:28:45.574Z,45.30
2018-08-22T09:31:15.298Z,45.90
2018-08-22T09:33:45.045Z,45.40
2018-08-22T09:36:14.741Z,45.10
2018-08-22T09:38:44.494Z,44.90
2018-08-22T09:41:14.380Z,44.70
2018-08-22T09:43:44.175Z,44.30
2018-08-22T09:46:13.797Z,43.80
2018-08-22T09:48:43.683Z,43.00
2018-08-22T09:51:13.496Z,42.70
2018-08-22T09:53:43.167Z,42.90
2018-08-22T09:56:13.563Z,43.00
2018-08-22T09:58:43.417Z,41.70
2018-08-22T10:01:18.526Z,41.60
2018-08-22T10:03:59.264Z,41.70
2018-08-22T10:06:37.908Z,41.40
2018-08-22T10:09:12.602Z,41.50
2018-08-22T10:11:42.382Z,41.70
2018-08-22T10:14:12.462Z,40.80
2018-08-22T10:16:42.421Z,41.40
2018-08-22T10:19:12.175Z,40.60
2018-08-22T10:21:41.955Z,40.60
2018-08-22T10:24:11.628Z,40.90
2018-08-22T10:26:41.482Z,40.50
2018-08-22T10:29:11.172Z,41.10
2018-08-22T10:31:40.862Z,40.30
2018-08-22T10:34:10.662Z,40.20
2018-08-22T10:36:40.479Z,39.90
2018-08-22T10:39:10.792Z,39.40
2018-08-22T10:41:40.786Z,39.70
2018-08-22T10:44:10.651Z,40.20
2018-08-22T10:46:40.465Z,40.60
2018-08-22T10:49:10.353Z,40.70
2018-08-22T10:51:40.264Z,41.30
2018-08-22T10:54:10.152Z,41.00
2018-08-22T10:56:39.913Z,41.20
2018-08-22T10:59:09.657Z,41.60
2018-08-22T11:01:39.434Z,40.80
2018-08-22T11:04:09.241Z,40.60
2018-08-22T11:06:39.020Z,40.50
2018-08-22T11:09:10.535Z,40.10
2018-08-22T11:11:40.962Z,40.60
2018-08-22T11:14:10.750Z,40.40
2018-08-22T11:16:40.506Z,40.60
2018-08-22T11:19:10.265Z,40.40
2018-08-22T11:21:56.527Z,40.70
2018-08-22T11:24:42.842Z,40.40
2018-08-22T11:27:29.091Z,40.40
2018-08-22T11:30:15.462Z,40.70
2018-08-22T11:33:01.841Z,40.20
2018-08-22T11:35:29.632Z,38.60
2018-08-22T11:37:59.416Z,38.70
2018-08-22T11:40:29.236Z,38.80
2018-08-22T11:42:58.938Z,39.20
2018-08-22T11:45:28.656Z,39.70
2018-08-22T11:47:58.472Z,39.80
2018-08-22T11:50:28.386Z,39.80
2018-08-22T11:52:58.210Z,39.30
2018-08-22T11:55:27.928Z,38.50
2018-08-22T11:57:57.818Z,38.50
2018-08-22T12:00:27.550Z,38.70
2018-08-22T12:02:57.237Z,38.60
2018-08-22T12:05:26.956Z,39.10
2018-08-22T12:07:56.704Z,39.10
2018-08-22T12:10:30.698Z,38.80
2018-08-22T12:13:03.342Z,39.30
2018-08-22T12:15:34.276Z,39.20
2018-08-22T12:18:04.287Z,39.50
2018-08-22T12:20:34.241Z,40.00
2018-08-22T12:23:04.405Z,39.70
2018-08-22T12:25:34.265Z,40.40
2018-08-22T12:28:04.283Z,40.40
2018-08-22T12:30:34.035Z,40.50
2018-08-22T12:33:04.179Z,40.00
2018-08-22T12:35:34.049Z,40.00
2018-08-22T12:38:03.935Z,39.70
2018-08-22T12:40:33.925Z,39.80
2018-08-22T12:43:03.819Z,40.00
2018-08-22T12:45:33.646Z,40.00
2018-08-22T12:48:03.382Z,40.00
2018-08-22T12:50:33.052Z,40.30
2018-08-22T12:53:02.707Z,40.90
2018-08-22T12:55:32.578Z,41.30
2018-08-22T12:58:02.450Z,41.90
2018-08-22T13:00:32.183Z,42.30
2018-08-22T13:03:01.943Z,42.00
2018-08-22T13:05:31.698Z,41.70
2018-08-22T13:08:01.432Z,41.20
2018-08-22T13:10:31.146Z,41.30
2018-08-22T13:13:00.906Z,41.70
2018-08-22T13:15:30.723Z,41.80
2018-08-22T13:18:00.498Z,41.40
2018-08-22T13:20:30.226Z,41.20
2018-08-22T13:22:59.939Z,41.40
2018-08-22T13:25:29.638Z,41.30
2018-08-22T13:27:59.425Z,41.10
2018-08-22T13:30:29.125Z,41.20
2018-08-22T13:32:58.988Z,41.50
2018-08-22T13:35:28.907Z,42.20
2018-08-22T13:37:58.724Z,42.80
2018-08-22T13:40:28.419Z,43.00
2018-08-22T13:42:58.251Z,43.30
2018-08-22T13:45:28.077Z,44.20
2018-08-22T13:47:57.842Z,44.20
2018-08-22T13:50:27.635Z,44.10
2018-08-22T13:52:57.554Z,43.90
2018-08-22T13:55:27.443Z,44.10
2018-08-22T13:57:57.351Z,43.70
2018-08-22T14:00:27.165Z,42.90
2018-08-22T14:02:56.972Z,43.10
2018-08-22T14:05:26.807Z,43.40
2018-08-22T14:07:56.502Z,43.90
2018-08-22T14:10:26.283Z,44.10
2018-08-22T14:12:55.917Z,44.00
2018-08-22T14:15:25.718Z,43.50
2018-08-22T14:17:55.354Z,43.10
2018-08-22T14:20:24.972Z,42.70
2018-08-22T14:22:54.698Z,41.90
2018-08-22T14:25:24.511Z,42.10
2018-08-22T14:27:54.312Z,42.40
2018-08-22T14:30:24.144Z,41.70
2018-08-22T14:32:54.034Z,42.10
2018-08-22T14:35:23.906Z,41.90
2018-08-22T14:37:53.514Z,41.80
2018-08-22T14:40:23.208Z,41.80
2018-08-22T14:42:52.973Z,41.90
2018-08-22T14:45:22.711Z,42.00
2018-08-22T14:47:52.504Z,42.00
2018-08-22T14:50:22.280Z,42.10
2018-08-22T14:52:52.077Z,41.80
2018-08-22T14:55:21.992Z,40.80
2018-08-22T14:57:51.747Z,40.60
2018-08-22T15:00:21.532Z,41.10
2018-08-22T15:02:51.552Z,41.10
2018-08-22T15:05:21.216Z,40.70
2018-08-22T15:07:51.245Z,40.40
2018-08-22T15:10:21.057Z,40.60
2018-08-22T15:12:50.794Z,40.20
2018-08-22T15:15:20.483Z,40.00
2018-08-22T15:17:50.283Z,40.30
2018-08-22T15:20:20.174Z,40.30
2018-08-22T15:22:49.910Z,40.40
2018-08-22T15:25:19.708Z,41.10
2018-08-22T15:27:49.644Z,40.30
2018-08-22T15:30:19.356Z,40.30
2018-08-22T15:32:49.212Z,40.60
2018-08-22T15:35:19.276Z,40.20
2018-08-22T15:37:49.210Z,40.10
2018-08-22T15:40:18.880Z,40.00
2018-08-22T15:42:48.818Z,40.00
2018-08-22T15:45:18.453Z,40.10
2018-08-22T15:47:48.160Z,39.70
2018-08-22T15:50:17.880Z,40.10
2018-08-22T15:52:47.685Z,40.10
2018-08-22T15:55:18.818Z,40.40
2018-08-22T15:57:58.219Z,40.90
2018-08-22T16:00:42.359Z,40.90
2018-08-22T16:03:12.813Z,41.30
2018-08-22T16:05:44.068Z,41.80
2018-08-22T16:08:15.941Z,42.10
2018-08-22T16:10:45.828Z,42.00
2018-08-22T16:13:20.820Z,42.20
2018-08-22T16:15:52.088Z,42.20
2018-08-22T16:18:22.075Z,42.90
2018-08-22T16:21:02.318Z,42.90
2018-08-22T16:23:34.065Z,42.80
2018-08-22T16:26:04.880Z,43.00
2018-08-22T16:28:55.203Z,42.90
2018-08-22T16:31:29.864Z,43.50
2018-08-22T16:33:59.680Z,44.10
2018-08-22T16:36:30.154Z,43.90
2018-08-22T16:39:00.982Z,43.90
2018-08-22T16:41:30.925Z,44.60
2018-08-22T16:44:00.730Z,45.20
2018-08-22T16:46:30.548Z,45.50
2018-08-22T16:49:00.413Z,46.10
2018-08-22T16:51:30.270Z,45.70
2018-08-22T16:54:06.508Z,46.40
2018-08-22T16:56:36.394Z,46.10
2018-08-22T16:59:13.235Z,46.40
2018-08-22T17:01:47.683Z,46.90
2018-08-22T17:04:17.348Z,46.80
2018-08-22T17:06:47.384Z,47.20
2018-08-22T17:09:17.165Z,47.50
2018-08-22T17:11:46.903Z,47.80
2018-08-22T17:14:16.611Z,48.00
2018-08-22T17:16:46.378Z,48.20
2018-08-22T17:19:16.150Z,48.40
2018-08-22T17:21:45.921Z,48.50
2018-08-22T17:24:15.669Z,48.70
2018-08-22T17:26:45.413Z,48.90
2018-08-22T17:29:15.379Z,49.10
2018-08-22T17:31:50.204Z,49.40
2018-08-22T17:34:19.942Z,49.40
2018-08-22T17:37:07.229Z,49.50
2018-08-22T17:39:36.955Z,49.80
2018-08-22T17:42:06.776Z,50.20
2018-08-22T17:44:36.506Z,50.50
2018-08-22T17:47:06.240Z,50.90
2018-08-22T17:49:35.986Z,51.10
2018-08-22T17:52:09.167Z,51.20
2018-08-22T17:54:38.974Z,51.30
2018-08-22T17:57:20.438Z,51.60
2018-08-22T17:59:50.222Z,52.00
2018-08-22T18:02:19.982Z,52.00
2018-08-22T18:05:07.851Z,52.20
2018-08-22T18:07:37.644Z,52.50
2018-08-22T18:10:07.305Z,52.60
2018-08-22T18:12:36.994Z,53.00
2018-08-22T18:15:06.937Z,52.90
2018-08-22T18:17:36.810Z,53.30
2018-08-22T18:20:06.690Z,53.30
2018-08-22T18:22:38.073Z,53.60
2018-08-22T18:25:08.191Z,53.80
2018-08-22T18:27:38.167Z,54.10
2018-08-22T18:30:12.180Z,54.30
2018-08-22T18:32:42.058Z,54.70
2018-08-22T18:35:12.515Z,54.70
2018-08-22T18:37:42.752Z,55.40
2018-08-22T18:40:21.375Z,55.30
2018-08-22T18:42:57.647Z,55.40
2018-08-22T18:45:27.932Z,55.70
2018-08-22T18:47:57.863Z,56.10
2018-08-22T18:50:27.556Z,56.30
2018-08-22T18:52:58.767Z,56.40
2018-08-22T18:55:29.731Z,56.50
2018-08-22T18:58:01.007Z,56.60
2018-08-22T19:00:31.074Z,57.00
2018-08-22T19:03:00.705Z,57.00
2018-08-22T19:05:32.737Z,57.20
2018-08-22T19:08:15.313Z,57.30
2018-08-22T19:10:47.740Z,57.80
2018-08-22T19:13:19.638Z,57.70
2018-08-22T19:15:53.796Z,58.50
2018-08-22T19:18:23.635Z,58.10
2018-08-22T19:20:56.198Z,58.10
2018-08-22T19:23:26.023Z,58.20
2018-08-22T19:25:56.444Z,58.40
2018-08-22T19:28:26.279Z,58.60
2018-08-22T19:30:55.877Z,58.60
2018-08-22T19:33:26.749Z,58.80
2018-08-22T19:35:56.791Z,59.00
2018-08-22T19:38:27.660Z,59.00
2018-08-22T19:40:58.586Z,59.30
2018-08-22T19:43:28.473Z,59.30
2018-08-22T19:45:58.178Z,59.40
2018-08-22T19:48:27.919Z,59.60
2018-08-22T19:50:57.774Z,59.40
2018-08-22T19:53:27.411Z,59.90
2018-08-22T19:55:57.111Z,60.30
2018-08-22T19:58:32.102Z,60.50
2018-08-22T20:01:01.810Z,60.60
2018-08-22T20:03:38.015Z,60.90
2018-08-22T20:06:07.604Z,60.60
2018-08-22T20:08:38.792Z,61.10
2018-08-22T20:11:08.968Z,61.20
2018-08-22T20:13:50.454Z,61.50
2018-08-22T20:16:21.245Z,61.80
2018-08-22T20:18:53.281Z,61.90
2018-08-22T20:21:28.085Z,61.90
2018-08-22T20:23:57.703Z,62.50
2018-08-22T20:26:28.132Z,63.00
2018-08-22T20:28:59.083Z,63.10
2018-08-22T20:31:28.895Z,63.00
2018-08-22T20:34:08.000Z,63.20
2018-08-22T20:36:37.763Z,63.30
2018-08-22T20:39:11.186Z,63.40
2018-08-22T20:41:41.465Z,63.70
2018-08-22T20:44:19.040Z,63.80
2018-08-22T20:46:49.766Z,63.90
2018-08-22T20:49:21.088Z,63.90
2018-08-22T20:51:50.813Z,64.20
2018-08-22T20:54:23.429Z,64.10
2018-08-22T20:56:58.378Z,64.30
2018-08-22T20:59:28.012Z,64.70
2018-08-22T21:02:04.885Z,64.80
2018-08-22T21:04:35.550Z,64.70
2018-08-22T21:07:05.744Z,65.00
2018-08-22T21:09:35.423Z,65.00
2018-08-22T21:12:05.125Z,65.30
2018-08-22T21:14:34.896Z,65.80
2018-08-22T21:17:04.913Z,65.90
2018-08-22T21:19:34.594Z,66.10
2018-08-22T21:22:09.968Z,66.30
2018-08-22T21:24:39.680Z,66.20
2018-08-22T21:27:09.250Z,66.10
2018-08-22T21:29:38.998Z,66.10
2018-08-22T21:32:08.838Z,66.10
2018-08-22T21:34:38.552Z,66.60
2018-08-22T21:37:23.293Z,66.80
2018-08-22T21:39:52.990Z,67.10
2018-08-22T21:42:26.891Z,67.20
2018-08-22T21:44:57.468Z,67.60
2018-08-22T21:47:27.454Z,67.40
2018-08-22T21:49:57.366Z,67.50
2018-08-22T21:52:29.334Z,67.80
2018-08-22T21:54:59.212Z,67.60
2018-08-22T21:57:29.087Z,67.80
2018-08-22T22:00:09.193Z,68.00
2018-08-22T22:02:43.799Z,68.10
2018-08-22T22:05:13.687Z,68.40
2018-08-22T22:07:43.430Z,68.40
2018-08-22T22:10:13.646Z,68.50
2018-08-22T22:12:43.406Z,68.90
2018-08-22T22:15:18.797Z,69.10
2018-08-22T22:17:48.609Z,69.50
2018-08-22T22:20:18.345Z,69.60
2018-08-22T22:22:47.960Z,70.00
2018-08-22T22:25:17.697Z,70.00
2018-08-22T22:27:47.396Z,69.90
2018-08-22T22:30:17.151Z,70.20
2018-08-22T22:32:47.059Z,70.40
2018-08-22T22:35:24.896Z,70.70
2018-08-22T22:37:59.210Z,70.90
2018-08-22T22:40:30.522Z,70.90
2018-08-22T22:43:00.201Z,70.90
2018-08-22T22:48:37.498Z,70.80
2018-08-22T22:51:07.978Z,70.30
2018-08-22T22:53:37.992Z,70.40
2018-08-22T22:56:07.911Z,70.60
2018-08-22T22:58:38.378Z,70.50
2018-08-22T23:01:08.354Z,70.60
2018-08-22T23:03:38.190Z,70.50
2018-08-22T23:06:07.814Z,70.40
2018-08-22T23:08:37.548Z,70.40
2018-08-22T23:11:08.460Z,70.60
2018-08-22T23:13:39.110Z,70.70
2018-08-22T23:16:09.667Z,70.80
2018-08-22T23:18:39.401Z,70.80
2018-08-22T23:21:08.894Z,71.00
2018-08-22T23:23:39.098Z,71.20
2018-08-22T23:26:15.549Z,71.40
2018-08-22T23:28:45.725Z,71.30
2018-08-22T23:31:18.636Z,71.40
2018-08-22T23:33:48.265Z,71.70
2018-08-22T23:36:17.870Z,71.60
2018-08-22T23:38:47.594Z,71.70
2018-08-22T23:41:17.306Z,71.70
2018-08-22T23:43:52.679Z,71.50
2018-08-22T23:46:22.279Z,71.60
2018-08-22T23:48:59.281Z,71.70
2018-08-22T23:51:29.043Z,71.90
2018-08-22T23:54:00.100Z,72.10
2018-08-22T23:56:30.906Z,72.10
2018-08-22T23:59:00.845Z,72.20
